Terminal Aerodrome Forecast
Issued by NWS Wilmington, OH

Home | Current Version | Previous Version | Text Only | Print | Product List | Glossary On
Versions: 1 2 3 4 5 6 7 8 9 10 11 12 13 14 15 16 17 18 19 20 21 22 23 24
000
FTUS41 KILN 240500
TAFCVG
TAF
KCVG 240527Z 2406/2512 09007KT P6SM OVC100
     FM241500 12011KT P6SM BKN100
     FM241900 13010KT P6SM BKN250
     FM250700 15011KT P6SM -SHRA OVC060
     FM251000 18010KT P6SM VCSH OVC010=

USA.gov is the U.S. government's official web portal to all federal, state and local government web resources and services.